sensor_id;sensor_type;location;lat;lon;timestamp;pressure;altitude;pressure_sealevel;temperature;humidity
55610;BME280;41486;52.502;13.486;2023-05-11T00:02:20;100827.50;;;13.67;100.00
55610;BME280;41486;52.502;13.486;2023-05-11T00:04:48;100829.47;;;13.65;100.00
55610;BME280;41486;52.502;13.486;2023-05-11T00:07:16;100826.81;;;13.65;100.00
55610;BME280;41486;52.502;13.486;2023-05-11T00:09:44;100826.66;;;13.56;100.00
55610;BME280;41486;52.502;13.486;2023-05-11T00:12:12;100826.19;;;13.51;100.00
55610;BME280;41486;52.502;13.486;2023-05-11T00:14:40;100817.81;;;13.46;100.00
55610;BME280;41486;52.502;13.486;2023-05-11T00:17:10;100814.75;;;13.41;100.00
55610;BME280;41486;52.502;13.486;2023-05-11T00:19:38;100819.44;;;13.37;100.00
55610;BME280;41486;52.502;13.486;2023-05-11T00:22:07;100806.81;;;13.41;100.00
55610;BME280;41486;52.502;13.486;2023-05-11T00:24:35;100810.72;;;13.47;100.00
55610;BME280;41486;52.502;13.486;2023-05-11T00:27:06;100807.97;;;13.48;100.00
55610;BME280;41486;52.502;13.486;2023-05-11T00:29:34;100807.91;;;13.38;100.00
55610;BME280;41486;52.502;13.486;2023-05-11T00:32:02;100810.44;;;13.40;100.00
55610;BME280;41486;52.502;13.486;2023-05-11T00:34:32;100807.78;;;13.40;100.00
55610;BME280;41486;52.502;13.486;2023-05-11T00:37:00;100811.75;;;13.34;100.00
55610;BME280;41486;52.502;13.486;2023-05-11T00:39:29;100812.00;;;13.31;100.00
55610;BME280;41486;52.502;13.486;2023-05-11T00:41:57;100809.50;;;13.30;100.00
55610;BME280;41486;52.502;13.486;2023-05-11T00:44:26;100816.41;;;13.21;100.00
55610;BME280;41486;52.502;13.486;2023-05-11T00:46:54;100805.38;;;13.16;100.00
55610;BME280;41486;52.502;13.486;2023-05-11T00:49:23;100821.03;;;13.07;100.00
55610;BME280;41486;52.502;13.486;2023-05-11T00:51:52;100808.22;;;13.03;100.00
55610;BME280;41486;52.502;13.486;2023-05-11T00:54:20;100819.66;;;13.03;100.00
55610;BME280;41486;52.502;13.486;2023-05-11T00:56:48;100818.94;;;13.01;100.00
55610;BME280;41486;52.502;13.486;2023-05-11T00:59:16;100815.72;;;12.98;100.00
55610;BME280;41486;52.502;13.486;2023-05-11T01:01:44;100818.88;;;12.91;100.00
55610;BME280;41486;52.502;13.486;2023-05-11T01:04:12;100822.03;;;12.85;100.00
55610;BME280;41486;52.502;13.486;2023-05-11T01:06:48;100815.81;;;12.75;100.00
55610;BME280;41486;52.502;13.486;2023-05-11T01:09:31;100826.63;;;12.72;100.00
55610;BME280;41486;52.502;13.486;2023-05-11T01:12:10;100826.41;;;12.96;100.00
55610;BME280;41486;52.502;13.486;2023-05-11T01:14:44;100823.03;;;12.73;100.00
55610;BME280;41486;52.502;13.486;2023-05-11T01:17:19;100822.06;;;12.74;100.00
55610;BME280;41486;52.502;13.486;2023-05-11T01:19:53;100826.19;;;12.67;100.00
55610;BME280;41486;52.502;13.486;2023-05-11T01:22:43;100830.03;;;12.62;100.00
55610;BME280;41486;52.502;13.486;2023-05-11T01:25:38;100835.69;;;12.58;100.00
55610;BME280;41486;52.502;13.486;2023-05-11T01:28:38;100837.94;;;12.62;100.00
55610;BME280;41486;52.502;13.486;2023-05-11T01:31:14;100839.19;;;12.58;100.00
55610;BME280;41486;52.502;13.486;2023-05-11T01:33:47;100842.78;;;12.57;100.00
55610;BME280;41486;52.502;13.486;2023-05-11T01:36:18;100840.16;;;12.46;100.00
55610;BME280;41486;52.502;13.486;2023-05-11T01:38:48;100846.81;;;12.40;100.00
55610;BME280;41486;52.502;13.486;2023-05-11T01:41:19;100849.16;;;12.43;100.00
55610;BME280;41486;52.502;13.486;2023-05-11T01:43:56;100846.22;;;12.37;100.00
55610;BME280;41486;52.502;13.486;2023-05-11T01:46:29;100845.72;;;12.31;100.00
55610;BME280;41486;52.502;13.486;2023-05-11T01:49:00;100846.53;;;12.43;100.00
55610;BME280;41486;52.502;13.486;2023-05-11T01:51:32;100844.47;;;12.47;100.00
55610;BME280;41486;52.502;13.486;2023-05-11T01:54:05;100849.16;;;12.43;100.00
55610;BME280;41486;52.502;13.486;2023-05-11T01:56:34;100846.28;;;12.46;100.00
55610;BME280;41486;52.502;13.486;2023-05-11T01:59:03;100853.41;;;12.35;100.00
55610;BME280;41486;52.502;13.486;2023-05-11T02:01:35;100851.00;;;12.31;100.00
55610;BME280;41486;52.502;13.486;2023-05-11T02:04:03;100858.56;;;12.36;100.00
55610;BME280;41486;52.502;13.486;2023-05-11T02:06:33;100858.22;;;12.29;100.00
55610;BME280;41486;52.502;13.486;2023-05-11T02:09:02;100859.50;;;12.46;100.00
55610;BME280;41486;52.502;13.486;2023-05-11T02:11:33;100857.28;;;12.63;100.00
55610;BME280;41486;52.502;13.486;2023-05-11T02:14:03;100856.03;;;12.35;100.00
55610;BME280;41486;52.502;13.486;2023-05-11T02:16:34;100863.00;;;12.24;100.00
55610;BME280;41486;52.502;13.486;2023-05-11T02:19:03;100870.34;;;12.21;100.00
55610;BME280;41486;52.502;13.486;2023-05-11T02:21:33;100865.66;;;12.24;100.00
55610;BME280;41486;52.502;13.486;2023-05-11T02:24:04;100866.50;;;12.13;100.00
55610;BME280;41486;52.502;13.486;2023-05-11T02:26:33;100875.25;;;12.14;100.00
55610;BME280;41486;52.502;13.486;2023-05-11T02:29:01;100869.38;;;12.10;100.00
55610;BME280;41486;52.502;13.486;2023-05-11T02:31:31;100869.78;;;12.06;100.00
55610;BME280;41486;52.502;13.486;2023-05-11T02:34:07;100867.56;;;12.22;100.00
55610;BME280;41486;52.502;13.486;2023-05-11T02:36:41;100868.91;;;12.17;100.00
55610;BME280;41486;52.502;13.486;2023-05-11T02:39:11;100876.09;;;12.03;100.00
55610;BME280;41486;52.502;13.486;2023-05-11T02:41:42;100873.72;;;12.00;100.00
55610;BME280;41486;52.502;13.486;2023-05-11T02:44:14;100867.38;;;12.03;100.00
55610;BME280;41486;52.502;13.486;2023-05-11T02:46:46;100864.25;;;12.09;100.00
55610;BME280;41486;52.502;13.486;2023-05-11T02:49:20;100864.97;;;11.99;100.00
55610;BME280;41486;52.502;13.486;2023-05-11T02:51:49;100867.59;;;11.99;100.00
55610;BME280;41486;52.502;13.486;2023-05-11T02:54:19;100867.59;;;11.99;100.00
55610;BME280;41486;52.502;13.486;2023-05-11T02:56:51;100864.81;;;11.90;100.00
55610;BME280;41486;52.502;13.486;2023-05-11T02:59:21;100871.41;;;11.84;100.00
55610;BME280;41486;52.502;13.486;2023-05-11T03:01:50;100870.94;;;11.79;100.00
55610;BME280;41486;52.502;13.486;2023-05-11T03:04:20;100872.50;;;11.81;100.00
55610;BME280;41486;52.502;13.486;2023-05-11T03:06:48;100875.59;;;11.87;100.00
55610;BME280;41486;52.502;13.486;2023-05-11T03:09:16;100877.53;;;11.96;100.00
55610;BME280;41486;52.502;13.486;2023-05-11T03:11:46;100873.56;;;11.90;100.00
55610;BME280;41486;52.502;13.486;2023-05-11T03:14:15;100873.56;;;11.90;100.00
55610;BME280;41486;52.502;13.486;2023-05-11T03:16:44;100870.84;;;12.03;100.00
55610;BME280;41486;52.502;13.486;2023-05-11T03:19:13;100872.75;;;12.12;100.00
55610;BME280;41486;52.502;13.486;2023-05-11T03:21:45;100868.56;;;12.10;100.00
55610;BME280;41486;52.502;13.486;2023-05-11T03:24:14;100864.84;;;12.12;100.00
55610;BME280;41486;52.502;13.486;2023-05-11T03:26:43;100866.91;;;11.97;100.00
55610;BME280;41486;52.502;13.486;2023-05-11T03:29:12;100868.31;;;12.02;100.00
55610;BME280;41486;52.502;13.486;2023-05-11T03:31:42;100867.59;;;11.99;100.00
55610;BME280;41486;52.502;13.486;2023-05-11T03:34:10;100873.72;;;12.00;100.00
55610;BME280;41486;52.502;13.486;2023-05-11T03:36:42;100875.63;;;11.98;100.00
55610;BME280;41486;52.502;13.486;2023-05-11T03:39:14;100870.00;;;11.80;100.00
55610;BME280;41486;52.502;13.486;2023-05-11T03:41:43;100868.88;;;11.71;100.00
55610;BME280;41486;52.502;13.486;2023-05-11T03:44:12;100880.53;;;11.80;100.00
55610;BME280;41486;52.502;13.486;2023-05-11T03:46:43;100875.59;;;11.87;100.00
55610;BME280;41486;52.502;13.486;2023-05-11T03:49:14;100875.50;;;11.65;100.00
55610;BME280;41486;52.502;13.486;2023-05-11T03:51:44;100875.50;;;11.77;100.00
55610;BME280;41486;52.502;13.486;2023-05-11T03:54:13;100866.16;;;11.95;100.00
55610;BME280;41486;52.502;13.486;2023-05-11T03:56:41;100879.34;;;11.95;100.00
55610;BME280;41486;52.502;13.486;2023-05-11T03:59:13;100869.59;;;11.96;100.00
55610;BME280;41486;52.502;13.486;2023-05-11T04:01:42;100881.13;;;11.95;100.00
55610;BME280;41486;52.502;13.486;2023-05-11T04:04:10;100878.28;;;11.98;100.00
55610;BME280;41486;52.502;13.486;2023-05-11T04:06:38;100875.84;;;11.95;100.00
55610;BME280;41486;52.502;13.486;2023-05-11T04:09:19;100876.91;;;11.92;100.00
55610;BME280;41486;52.502;13.486;2023-05-11T04:11:49;100878.38;;;11.85;100.00
55610;BME280;41486;52.502;13.486;2023-05-11T04:14:17;100869.03;;;11.81;100.00
55610;BME280;41486;52.502;13.486;2023-05-11T04:16:46;100877.91;;;11.80;100.00
55610;BME280;41486;52.502;13.486;2023-05-11T04:19:14;100873.81;;;11.87;100.00
55610;BME280;41486;52.502;13.486;2023-05-11T04:21:43;100873.34;;;11.93;100.00
55610;BME280;41486;52.502;13.486;2023-05-11T04:24:12;100876.69;;;12.07;100.00
55610;BME280;41486;52.502;13.486;2023-05-11T04:26:41;100877.69;;;12.06;100.00
55610;BME280;41486;52.502;13.486;2023-05-11T04:29:09;100882.84;;;12.07;100.00
55610;BME280;41486;52.502;13.486;2023-05-11T04:31:37;100888.59;;;12.01;100.00
55610;BME280;41486;52.502;13.486;2023-05-11T04:34:05;100881.63;;;12.11;100.00
55610;BME280;41486;52.502;13.486;2023-05-11T04:36:35;100881.84;;;12.20;100.00
55610;BME280;41486;52.502;13.486;2023-05-11T04:39:03;100887.47;;;12.26;100.00
55610;BME280;41486;52.502;13.486;2023-05-11T04:41:35;100888.81;;;12.32;100.00
55610;BME280;41486;52.502;13.486;2023-05-11T04:44:05;100891.56;;;12.19;100.00
55610;BME280;41486;52.502;13.486;2023-05-11T04:46:33;100892.53;;;12.18;100.00
55610;BME280;41486;52.502;13.486;2023-05-11T04:49:02;100894.53;;;12.26;100.00
55610;BME280;41486;52.502;13.486;2023-05-11T04:51:31;100891.06;;;12.37;100.00
55610;BME280;41486;52.502;13.486;2023-05-11T04:53:59;100897.41;;;12.34;100.00
55610;BME280;41486;52.502;13.486;2023-05-11T04:56:27;100898.72;;;12.40;100.00
55610;BME280;41486;52.502;13.486;2023-05-11T04:58:55;100898.72;;;12.51;100.00
55610;BME280;41486;52.502;13.486;2023-05-11T05:01:24;100906.13;;;12.57;100.00
55610;BME280;41486;52.502;13.486;2023-05-11T05:03:53;100906.22;;;12.67;100.00
55610;BME280;41486;52.502;13.486;2023-05-11T05:06:21;100906.69;;;12.72;100.00
55610;BME280;41486;52.502;13.486;2023-05-11T05:08:49;100904.88;;;12.73;100.00
55610;BME280;41486;52.502;13.486;2023-05-11T05:11:17;100899.97;;;12.80;100.00
55610;BME280;41486;52.502;13.486;2023-05-11T05:13:45;100913.75;;;12.83;100.00
55610;BME280;41486;52.502;13.486;2023-05-11T05:16:13;100914.16;;;13.00;100.00
55610;BME280;41486;52.502;13.486;2023-05-11T05:18:43;100915.47;;;13.05;100.00
55610;BME280;41486;52.502;13.486;2023-05-11T05:21:11;100918.69;;;13.09;100.00
55610;BME280;41486;52.502;13.486;2023-05-11T05:23:39;100910.44;;;13.23;100.00
55610;BME280;41486;52.502;13.486;2023-05-11T05:26:07;100913.09;;;13.23;100.00
55610;BME280;41486;52.502;13.486;2023-05-11T05:28:39;100912.13;;;13.24;100.00
55610;BME280;41486;52.502;13.486;2023-05-11T05:31:08;100918.31;;;13.35;100.00
55610;BME280;41486;52.502;13.486;2023-05-11T05:33:36;100914.97;;;13.33;100.00
55610;BME280;41486;52.502;13.486;2023-05-11T05:36:06;100918.41;;;13.45;100.00
55610;BME280;41486;52.502;13.486;2023-05-11T05:38:36;100925.44;;;13.55;100.00
55610;BME280;41486;52.502;13.486;2023-05-11T05:41:05;100921.13;;;13.54;100.00
55610;BME280;41486;52.502;13.486;2023-05-11T05:43:37;100918.56;;;13.74;99.66
55610;BME280;41486;52.502;13.486;2023-05-11T05:46:05;100927.09;;;13.78;98.76
55610;BME280;41486;52.502;13.486;2023-05-11T05:48:33;100931.41;;;13.79;97.92
55610;BME280;41486;52.502;13.486;2023-05-11T05:51:01;100932.47;;;13.97;96.93
55610;BME280;41486;52.502;13.486;2023-05-11T05:53:31;100936.97;;;14.07;95.39
55610;BME280;41486;52.502;13.486;2023-05-11T05:55:59;100947.16;;;14.11;94.65
55610;BME280;41486;52.502;13.486;2023-05-11T05:58:28;100946.63;;;14.17;93.51
55610;BME280;41486;52.502;13.486;2023-05-11T06:00:56;100948.22;;;14.30;93.80
55610;BME280;41486;52.502;13.486;2023-05-11T06:03:24;100942.50;;;14.34;92.34
55610;BME280;41486;52.502;13.486;2023-05-11T06:05:55;100945.75;;;14.48;91.54
55610;BME280;41486;52.502;13.486;2023-05-11T06:08:23;100940.63;;;14.56;90.21
55610;BME280;41486;52.502;13.486;2023-05-11T06:10:54;100955.59;;;14.67;89.11
55610;BME280;41486;52.502;13.486;2023-05-11T06:13:23;100946.81;;;14.76;88.36
55610;BME280;41486;52.502;13.486;2023-05-11T06:15:51;100946.66;;;14.88;88.89
55610;BME280;41486;52.502;13.486;2023-05-11T06:18:26;100946.97;;;15.04;86.49
55610;BME280;41486;52.502;13.486;2023-05-11T06:20:54;100945.31;;;15.13;84.81
55610;BME280;41486;52.502;13.486;2023-05-11T06:23:24;100945.72;;;15.08;84.83
55610;BME280;41486;52.502;13.486;2023-05-11T06:25:55;100947.53;;;15.27;83.00
55610;BME280;41486;52.502;13.486;2023-05-11T06:28:24;100942.63;;;15.33;81.58
55610;BME280;41486;52.502;13.486;2023-05-11T06:30:57;100946.94;;;15.43;80.33
55610;BME280;41486;52.502;13.486;2023-05-11T06:33:31;100940.38;;;15.57;80.31
55610;BME280;41486;52.502;13.486;2023-05-11T06:36:03;100948.44;;;15.66;77.52
55610;BME280;41486;52.502;13.486;2023-05-11T06:38:31;100946.72;;;15.74;78.16
55610;BME280;41486;52.502;13.486;2023-05-11T06:41:01;100951.75;;;15.77;77.60
55610;BME280;41486;52.502;13.486;2023-05-11T06:43:29;100947.25;;;15.98;77.10
55610;BME280;41486;52.502;13.486;2023-05-11T06:46:00;100949.50;;;16.02;75.85
55610;BME280;41486;52.502;13.486;2023-05-11T06:48:29;100944.00;;;16.14;75.23
55610;BME280;41486;52.502;13.486;2023-05-11T06:50:57;100944.38;;;16.19;73.98
55610;BME280;41486;52.502;13.486;2023-05-11T06:53:25;100950.63;;;16.28;74.16
55610;BME280;41486;52.502;13.486;2023-05-11T06:55:56;100938.44;;;16.35;72.25
55610;BME280;41486;52.502;13.486;2023-05-11T06:58:27;100944.69;;;16.44;71.73
55610;BME280;41486;52.502;13.486;2023-05-11T07:00:55;100947.72;;;16.49;73.45
55610;BME280;41486;52.502;13.486;2023-05-11T07:03:24;100946.84;;;16.58;72.35
55610;BME280;41486;52.502;13.486;2023-05-11T07:05:52;100941.97;;;16.71;71.59
55610;BME280;41486;52.502;13.486;2023-05-11T07:08:20;100940.56;;;16.77;70.43
55610;BME280;41486;52.502;13.486;2023-05-11T07:10:48;100946.09;;;16.84;68.91
55610;BME280;41486;52.502;13.486;2023-05-11T07:13:16;100949.78;;;17.01;68.65
55610;BME280;41486;52.502;13.486;2023-05-11T07:15:45;100944.09;;;17.14;67.30
55610;BME280;41486;52.502;13.486;2023-05-11T07:18:15;100948.31;;;17.25;63.68
55610;BME280;41486;52.502;13.486;2023-05-11T07:20:43;100951.50;;;17.28;61.36
55610;BME280;41486;52.502;13.486;2023-05-11T07:23:15;100951.44;;;17.38;61.78
55610;BME280;41486;52.502;13.486;2023-05-11T07:25:43;100948.00;;;17.46;60.51
55610;BME280;41486;52.502;13.486;2023-05-11T07:28:16;100941.75;;;17.55;60.51
55610;BME280;41486;52.502;13.486;2023-05-11T07:30:49;100941.44;;;17.58;59.59
55610;BME280;41486;52.502;13.486;2023-05-11T07:33:17;100948.16;;;17.71;60.00
55610;BME280;41486;52.502;13.486;2023-05-11T07:35:45;100946.88;;;17.83;62.32
55610;BME280;41486;52.502;13.486;2023-05-11T07:38:13;100948.47;;;17.94;61.07
55610;BME280;41486;52.502;13.486;2023-05-11T07:40:41;100939.41;;;18.05;60.30
55610;BME280;41486;52.502;13.486;2023-05-11T07:43:09;100949.56;;;18.09;58.90
55610;BME280;41486;52.502;13.486;2023-05-11T07:45:38;100944.44;;;18.16;59.11
55610;BME280;41486;52.502;13.486;2023-05-11T07:48:10;100950.47;;;18.26;58.81
55610;BME280;41486;52.502;13.486;2023-05-11T07:50:42;100943.84;;;18.31;58.04
55610;BME280;41486;52.502;13.486;2023-05-11T07:53:22;100950.81;;;18.32;57.23
55610;BME280;41486;52.502;13.486;2023-05-11T07:55:50;100944.50;;;18.33;57.58
55610;BME280;41486;52.502;13.486;2023-05-11T07:58:22;100945.88;;;18.45;57.09
55610;BME280;41486;52.502;13.486;2023-05-11T08:00:50;100947.91;;;18.51;55.43
55610;BME280;41486;52.502;13.486;2023-05-11T08:03:19;100949.72;;;18.59;54.21
55610;BME280;41486;52.502;13.486;2023-05-11T08:06:00;100950.28;;;18.63;54.63
55610;BME280;41486;52.502;13.486;2023-05-11T08:08:30;100953.28;;;18.68;55.28
55610;BME280;41486;52.502;13.486;2023-05-11T08:10:59;100951.63;;;18.83;55.98
55610;BME280;41486;52.502;13.486;2023-05-11T08:13:57;100952.50;;;18.92;53.56
55610;BME280;41486;52.502;13.486;2023-05-11T08:16:45;100947.31;;;18.90;53.48
55610;BME280;41486;52.502;13.486;2023-05-11T08:19:30;100950.50;;;19.02;53.39
55610;BME280;41486;52.502;13.486;2023-05-11T08:21:59;100951.88;;;19.06;52.95
55610;BME280;41486;52.502;13.486;2023-05-11T08:24:27;100947.69;;;19.12;52.65
55610;BME280;41486;52.502;13.486;2023-05-11T08:26:55;100941.34;;;19.21;53.06
55610;BME280;41486;52.502;13.486;2023-05-11T08:29:23;100935.50;;;19.18;52.00
55610;BME280;41486;52.502;13.486;2023-05-11T08:31:53;100945.88;;;19.29;51.16
55610;BME280;41486;52.502;13.486;2023-05-11T08:34:26;100944.19;;;19.36;52.62
55610;BME280;41486;52.502;13.486;2023-05-11T08:36:56;100942.84;;;19.41;52.13
55610;BME280;41486;52.502;13.486;2023-05-11T08:39:27;100940.16;;;19.49;51.22
55610;BME280;41486;52.502;13.486;2023-05-11T08:42:15;100933.78;;;19.66;51.83
55610;BME280;41486;52.502;13.486;2023-05-11T08:44:44;100938.94;;;19.76;50.70
55610;BME280;41486;52.502;13.486;2023-05-11T08:47:14;100940.78;;;19.76;51.08
55610;BME280;41486;52.502;13.486;2023-05-11T08:49:50;100941.63;;;19.84;50.70
55610;BME280;41486;52.502;13.486;2023-05-11T08:52:20;100940.59;;;19.94;50.52
55610;BME280;41486;52.502;13.486;2023-05-11T08:54:48;100936.09;;;19.94;49.21
55610;BME280;41486;52.502;13.486;2023-05-11T08:57:16;100946.31;;;19.91;49.69
55610;BME280;41486;52.502;13.486;2023-05-11T08:59:45;100936.59;;;19.98;49.94
55610;BME280;41486;52.502;13.486;2023-05-11T09:02:15;100939.25;;;19.98;48.86
55610;BME280;41486;52.502;13.486;2023-05-11T09:04:44;100935.38;;;20.09;50.05
55610;BME280;41486;52.502;13.486;2023-05-11T09:07:15;100935.97;;;20.19;48.62
55610;BME280;41486;52.502;13.486;2023-05-11T09:09:48;100940.78;;;20.32;48.40
55610;BME280;41486;52.502;13.486;2023-05-11T09:12:16;100931.56;;;20.43;47.92
55610;BME280;41486;52.502;13.486;2023-05-11T09:14:44;100935.31;;;20.57;47.35
55610;BME280;41486;52.502;13.486;2023-05-11T09:17:13;100927.06;;;20.67;46.84
55610;BME280;41486;52.502;13.486;2023-05-11T09:19:56;100929.63;;;20.60;45.99
55610;BME280;41486;52.502;13.486;2023-05-11T09:22:27;100932.41;;;20.67;45.95
55610;BME280;41486;52.502;13.486;2023-05-11T09:25:00;100936.84;;;20.83;45.41
55610;BME280;41486;52.502;13.486;2023-05-11T09:27:29;100928.50;;;21.01;45.13
55610;BME280;41486;52.502;13.486;2023-05-11T09:30:09;100933.44;;;20.89;43.45
55610;BME280;41486;52.502;13.486;2023-05-11T09:32:56;100935.31;;;20.88;43.74
55610;BME280;41486;52.502;13.486;2023-05-11T09:35:28;100934.41;;;20.96;44.21
55610;BME280;41486;52.502;13.486;2023-05-11T09:37:57;100927.44;;;21.10;44.62
55610;BME280;41486;52.502;13.486;2023-05-11T09:40:28;100927.09;;;21.28;43.95
55610;BME280;41486;52.502;13.486;2023-05-11T09:43:00;100923.25;;;21.31;43.01
55610;BME280;41486;52.502;13.486;2023-05-11T09:45:40;100935.31;;;21.26;42.93
55610;BME280;41486;52.502;13.486;2023-05-11T09:48:23;100938.84;;;21.27;43.03
55610;BME280;41486;52.502;13.486;2023-05-11T09:50:58;100937.31;;;21.48;42.63
55610;BME280;41486;52.502;13.486;2023-05-11T09:53:36;100934.28;;;21.51;41.14
55610;BME280;41486;52.502;13.486;2023-05-11T09:56:10;100935.91;;;21.52;40.75
55610;BME280;41486;52.502;13.486;2023-05-11T09:58:49;100929.94;;;21.50;40.52
55610;BME280;41486;52.502;13.486;2023-05-11T10:01:27;100932.09;;;21.69;40.53
55610;BME280;41486;52.502;13.486;2023-05-11T10:03:57;100932.41;;;21.74;40.16
55610;BME280;41486;52.502;13.486;2023-05-11T10:06:48;100925.34;;;21.88;39.63
55610;BME280;41486;52.502;13.486;2023-05-11T10:09:18;100925.16;;;22.05;39.66
55610;BME280;41486;52.502;13.486;2023-05-11T10:11:52;100923.28;;;22.35;38.79
55610;BME280;41486;52.502;13.486;2023-05-11T10:14:23;100928.19;;;22.47;38.22
55610;BME280;41486;52.502;13.486;2023-05-11T10:16:52;100923.34;;;23.00;38.61
55610;BME280;41486;52.502;13.486;2023-05-11T10:19:22;100921.16;;;23.61;36.55
55610;BME280;41486;52.502;13.486;2023-05-11T10:21:50;100921.09;;;23.54;36.83
55610;BME280;41486;52.502;13.486;2023-05-11T10:24:19;100920.75;;;23.36;36.86
55610;BME280;41486;52.502;13.486;2023-05-11T10:26:48;100924.72;;;23.40;36.69
55610;BME280;41486;52.502;13.486;2023-05-11T10:29:19;100922.97;;;23.60;36.63
55610;BME280;41486;52.502;13.486;2023-05-11T10:31:48;100923.22;;;23.09;36.47
55610;BME280;41486;52.502;13.486;2023-05-11T10:34:18;100921.22;;;23.74;36.13
55610;BME280;41486;52.502;13.486;2023-05-11T10:36:50;100919.94;;;23.99;36.29
55610;BME280;41486;52.502;13.486;2023-05-11T10:39:22;100912.72;;;23.71;36.06
55610;BME280;41486;52.502;13.486;2023-05-11T10:41:58;100920.63;;;24.21;35.63
55610;BME280;41486;52.502;13.486;2023-05-11T10:44:44;100926.53;;;23.61;36.57
55610;BME280;41486;52.502;13.486;2023-05-11T10:47:36;100929.59;;;23.08;37.12
55610;BME280;41486;52.502;13.486;2023-05-11T10:50:27;100925.84;;;22.80;37.56
55610;BME280;41486;52.502;13.486;2023-05-11T10:53:11;100918.94;;;22.71;38.24
55610;BME280;41486;52.502;13.486;2023-05-11T10:56:02;100917.53;;;23.47;36.96
55610;BME280;41486;52.502;13.486;2023-05-11T10:58:44;100915.84;;;23.74;35.80
55610;BME280;41486;52.502;13.486;2023-05-11T11:01:46;100909.66;;;23.74;35.70
55610;BME280;41486;52.502;13.486;2023-05-11T11:04:17;100901.94;;;23.64;36.07
55610;BME280;41486;52.502;13.486;2023-05-11T11:06:46;100908.13;;;23.29;36.56
55610;BME280;41486;52.502;13.486;2023-05-11T11:09:14;100912.91;;;23.12;37.40
55610;BME280;41486;52.502;13.486;2023-05-11T11:11:44;100914.97;;;22.89;36.96
55610;BME280;41486;52.502;13.486;2023-05-11T11:14:13;100913.16;;;23.74;35.58
55610;BME280;41486;52.502;13.486;2023-05-11T11:17:22;100915.59;;;26.33;31.80
55610;BME280;41486;52.502;13.486;2023-05-11T11:19:50;100914.78;;;25.66;32.59
55610;BME280;41486;52.502;13.486;2023-05-11T11:22:44;100907.25;;;24.41;33.96
55610;BME280;41486;52.502;13.486;2023-05-11T11:28:04;100917.63;;;23.96;35.18
55610;BME280;41486;52.502;13.486;2023-05-11T11:30:33;100918.63;;;24.30;34.07
55610;BME280;41486;52.502;13.486;2023-05-11T11:33:32;100913.09;;;23.33;36.75
55610;BME280;41486;52.502;13.486;2023-05-11T11:36:00;100922.78;;;23.05;37.68
55610;BME280;41486;52.502;13.486;2023-05-11T11:38:29;100922.47;;;22.93;38.53
55610;BME280;41486;52.502;13.486;2023-05-11T11:40:58;100916.47;;;22.18;39.60
55610;BME280;41486;52.502;13.486;2023-05-11T11:43:28;100912.34;;;22.37;39.16
55610;BME280;41486;52.502;13.486;2023-05-11T11:46:24;100922.28;;;22.21;39.47
55610;BME280;41486;52.502;13.486;2023-05-11T11:49:17;100921.81;;;22.33;38.72
55610;BME280;41486;52.502;13.486;2023-05-11T11:51:53;100928.81;;;22.34;37.96
55610;BME280;41486;52.502;13.486;2023-05-11T11:54:35;100931.41;;;22.27;37.99
55610;BME280;41486;52.502;13.486;2023-05-11T12:00:10;100924.75;;;22.53;37.11
55610;BME280;41486;52.502;13.486;2023-05-11T12:02:41;100931.25;;;22.65;36.07
55610;BME280;41486;52.502;13.486;2023-05-11T12:05:12;100936.56;;;22.59;36.51
55610;BME280;41486;52.502;13.486;2023-05-11T12:07:46;100930.88;;;22.68;35.98
55610;BME280;41486;52.502;13.486;2023-05-11T12:10:16;100933.56;;;22.47;36.58
55610;BME280;41486;52.502;13.486;2023-05-11T12:12:46;100926.09;;;23.07;35.67
55610;BME280;41486;52.502;13.486;2023-05-11T12:15:24;100935.25;;;23.41;33.85
55610;BME280;41486;52.502;13.486;2023-05-11T12:17:55;100931.84;;;25.40;31.31
55610;BME280;41486;52.502;13.486;2023-05-11T12:20:25;100924.34;;;25.35;30.76
55610;BME280;41486;52.502;13.486;2023-05-11T12:22:53;100939.88;;;25.54;30.65
55610;BME280;41486;52.502;13.486;2023-05-11T12:25:23;100935.22;;;26.01;30.06
55610;BME280;41486;52.502;13.486;2023-05-11T12:27:52;100935.88;;;25.90;30.74
55610;BME280;41486;52.502;13.486;2023-05-11T12:30:25;100928.47;;;25.38;31.03
55610;BME280;41486;52.502;13.486;2023-05-11T12:32:58;100940.31;;;25.50;31.67
55610;BME280;41486;52.502;13.486;2023-05-11T12:35:34;100932.97;;;24.57;32.00
55610;BME280;41486;52.502;13.486;2023-05-11T12:38:03;100934.78;;;23.94;33.02
55610;BME280;41486;52.502;13.486;2023-05-11T12:40:32;100934.44;;;23.76;33.46
55610;BME280;41486;52.502;13.486;2023-05-11T12:43:01;100940.69;;;24.73;32.30
55610;BME280;41486;52.502;13.486;2023-05-11T12:45:29;100943.03;;;25.44;31.37
55610;BME280;41486;52.502;13.486;2023-05-11T12:47:59;100927.66;;;25.44;31.06
55610;BME280;41486;52.502;13.486;2023-05-11T12:50:28;100931.06;;;25.98;30.16
55610;BME280;41486;52.502;13.486;2023-05-11T12:55:57;100947.88;;;26.53;29.18
55610;BME280;41486;52.502;13.486;2023-05-11T12:58:34;100933.53;;;26.07;29.62
55610;BME280;41486;52.502;13.486;2023-05-11T13:01:04;100932.94;;;26.50;28.94
55610;BME280;41486;52.502;13.486;2023-05-11T13:03:32;100939.59;;;26.86;27.65
55610;BME280;41486;52.502;13.486;2023-05-11T13:06:05;100939.97;;;28.52;25.56
55610;BME280;41486;52.502;13.486;2023-05-11T13:08:35;100943.56;;;27.09;26.58